createdAt,value
2019-04-26T00:00:49.753Z,6.00
2019-04-26T00:03:20.050Z,6.23
2019-04-26T00:05:48.747Z,6.93
2019-04-26T00:08:17.949Z,6.03
2019-04-26T00:10:57.238Z,7.30
2019-04-26T00:13:33.246Z,6.87
2019-04-26T00:16:03.831Z,7.53
2019-04-26T00:18:32.631Z,8.00
2019-04-26T00:21:01.330Z,6.53
2019-04-26T00:23:30.757Z,7.10
2019-04-26T00:25:59.625Z,7.17
2019-04-26T00:28:28.320Z,6.37
2019-04-26T00:30:57.060Z,6.67
2019-04-26T00:33:25.757Z,6.13
2019-04-26T00:35:54.459Z,6.33
2019-04-26T00:38:23.288Z,6.23
2019-04-26T00:40:52.885Z,6.13
2019-04-26T00:43:22.685Z,7.33
2019-04-26T00:45:52.785Z,5.97
2019-04-26T00:48:23.848Z,7.00
2019-04-26T00:50:53.649Z,6.57
2019-04-26T00:53:24.405Z,6.23
2019-04-26T00:55:53.900Z,5.97
2019-04-26T00:58:24.463Z,6.93
2019-04-26T01:00:53.845Z,6.63
2019-04-26T01:03:22.813Z,7.47
2019-04-26T01:05:59.820Z,8.13
2019-04-26T01:08:21.978Z,9.63
2019-04-26T01:10:50.683Z,10.40
2019-04-26T01:13:19.946Z,11.83
2019-04-26T01:15:49.097Z,9.80
2019-04-26T01:18:18.219Z,10.03
2019-04-26T01:20:49.316Z,8.87
2019-04-26T01:23:20.941Z,8.10
2019-04-26T01:26:12.021Z,7.13
2019-04-26T01:28:43.652Z,7.37
2019-04-26T01:31:13.763Z,6.17
2019-04-26T01:33:44.639Z,6.97
2019-04-26T01:36:13.862Z,6.40
2019-04-26T01:38:44.408Z,6.43
2019-04-26T01:41:17.149Z,6.30
2019-04-26T01:43:54.879Z,5.80
2019-04-26T01:46:33.979Z,6.67
2019-04-26T01:49:08.288Z,5.50
2019-04-26T01:51:45.340Z,5.53
2019-04-26T01:54:16.936Z,6.10
2019-04-26T01:56:46.531Z,5.63
2019-04-26T01:59:17.288Z,5.87
2019-04-26T02:02:02.998Z,6.00
2019-04-26T02:04:33.524Z,5.53
2019-04-26T02:07:02.595Z,5.90
2019-04-26T02:09:31.390Z,5.87
2019-04-26T02:12:00.737Z,6.90
2019-04-26T02:14:29.536Z,8.20
2019-04-26T02:16:59.058Z,6.10
2019-04-26T02:19:27.721Z,5.53
2019-04-26T02:22:07.010Z,5.93
2019-04-26T02:24:37.304Z,6.37
2019-04-26T02:27:07.669Z,5.57
2019-04-26T02:29:36.293Z,5.20
2019-04-26T02:32:07.432Z,5.80
2019-04-26T02:34:38.050Z,6.07
2019-04-26T02:37:10.205Z,5.87
2019-04-26T02:39:41.221Z,6.13
2019-04-26T02:42:31.005Z,6.10
2019-04-26T02:45:04.015Z,6.50
2019-04-26T02:47:39.028Z,6.70
2019-04-26T02:50:14.686Z,6.77
2019-04-26T02:52:48.902Z,7.50
2019-04-26T02:55:42.413Z,7.23
2019-04-26T02:58:12.477Z,7.80
2019-04-26T03:00:42.522Z,8.17
2019-04-26T03:03:12.047Z,8.87
2019-04-26T03:05:42.848Z,8.07
2019-04-26T03:08:14.447Z,7.53
2019-04-26T03:10:45.239Z,7.67
2019-04-26T03:13:18.413Z,7.87
2019-04-26T03:15:51.615Z,7.17
2019-04-26T03:18:41.565Z,6.80
2019-04-26T03:21:28.729Z,6.20
2019-04-26T03:24:00.334Z,6.43
2019-04-26T03:26:52.787Z,7.23
2019-04-26T03:29:27.040Z,7.57
2019-04-26T03:32:16.628Z,6.07
2019-04-26T03:34:54.943Z,6.47
2019-04-26T03:37:33.744Z,5.87
2019-04-26T03:40:18.042Z,6.00
2019-04-26T03:43:04.626Z,6.27
2019-04-26T03:45:40.882Z,5.43
2019-04-26T03:48:27.444Z,6.50
2019-04-26T03:51:08.014Z,6.17
2019-04-26T03:53:40.404Z,6.70
2019-04-26T03:56:17.424Z,6.70
2019-04-26T03:59:02.223Z,5.77
2019-04-26T04:01:39.579Z,5.33
2019-04-26T04:04:11.979Z,5.57
2019-04-26T04:06:56.735Z,6.53
2019-04-26T04:09:11.716Z,5.87
2019-04-26T04:11:49.920Z,5.90
2019-04-26T04:14:27.410Z,5.70
2019-04-26T04:17:09.291Z,6.73
2019-04-26T04:19:54.265Z,5.93
2019-04-26T04:22:25.744Z,6.10
2019-04-26T04:25:06.459Z,6.57
2019-04-26T04:27:47.956Z,7.10
2019-04-26T04:30:20.394Z,6.70
2019-04-26T04:33:24.840Z,6.37
2019-04-26T04:35:56.454Z,6.50
2019-04-26T04:38:34.006Z,6.53
2019-04-26T04:41:22.284Z,6.50
2019-04-26T04:44:16.413Z,5.80
2019-04-26T04:47:23.644Z,6.63
2019-04-26T04:49:59.461Z,6.60
2019-04-26T04:52:33.663Z,7.40
2019-04-26T04:55:24.637Z,7.33
2019-04-26T04:58:05.256Z,8.03
2019-04-26T05:01:11.253Z,10.23
2019-04-26T05:03:46.974Z,9.43
2019-04-26T05:06:41.133Z,8.50
2019-04-26T05:09:12.742Z,9.13
2019-04-26T05:11:59.030Z,8.03
2019-04-26T05:14:33.592Z,8.73
2019-04-26T05:17:16.929Z,8.27
2019-04-26T05:19:54.858Z,7.80
2019-04-26T05:22:35.440Z,8.20
2019-04-26T05:25:11.134Z,8.07
2019-04-26T05:27:44.344Z,7.70
2019-04-26T05:30:23.122Z,8.87
2019-04-26T05:33:18.667Z,7.87
2019-04-26T05:35:57.781Z,9.23
2019-04-26T05:38:41.347Z,9.30
2019-04-26T05:41:30.155Z,9.50
2019-04-26T05:44:17.980Z,8.47
2019-04-26T05:47:25.383Z,9.30
2019-04-26T05:50:30.051Z,9.37
2019-04-26T05:53:31.324Z,7.50
2019-04-26T05:56:22.639Z,7.80
2019-04-26T05:59:15.367Z,7.77
2019-04-26T06:02:34.543Z,8.07
2019-04-26T06:05:32.589Z,8.87
2019-04-26T06:08:31.534Z,8.80
2019-04-26T06:11:06.994Z,8.67
2019-04-26T06:13:49.197Z,8.23
2019-04-26T06:16:40.021Z,9.33
2019-04-26T06:19:19.117Z,10.27
2019-04-26T06:22:00.037Z,9.07
2019-04-26T06:24:46.585Z,9.00
2019-04-26T06:27:28.688Z,9.57
2019-04-26T06:30:12.155Z,9.33
2019-04-26T06:32:55.923Z,9.33
2019-04-26T06:35:20.414Z,10.37
2019-04-26T06:38:05.426Z,9.63
2019-04-26T06:41:00.198Z,9.90
2019-04-26T06:43:33.412Z,9.93
2019-04-26T06:46:38.025Z,9.73
2019-04-26T06:49:29.109Z,10.27
2019-04-26T06:52:12.718Z,9.40
2019-04-26T06:55:11.188Z,9.23
2019-04-26T06:57:59.980Z,9.77
2019-04-26T07:00:42.858Z,8.37
2019-04-26T07:03:29.562Z,10.27
2019-04-26T07:06:04.966Z,9.70
2019-04-26T07:08:57.309Z,10.03
2019-04-26T07:11:51.596Z,9.07
2019-04-26T07:14:42.292Z,10.33
2019-04-26T07:17:31.561Z,8.57
2019-04-26T07:20:21.662Z,8.77
2019-04-26T07:23:11.022Z,9.90
2019-04-26T07:26:15.462Z,9.93
2019-04-26T07:29:07.028Z,10.17
2019-04-26T07:31:57.842Z,9.63
2019-04-26T07:34:43.002Z,9.17
2019-04-26T07:37:43.261Z,9.17
2019-04-26T07:40:28.072Z,9.47
2019-04-26T07:43:26.670Z,9.00
2019-04-26T07:46:29.684Z,9.10
2019-04-26T07:49:13.459Z,10.30
2019-04-26T07:52:04.347Z,10.10
2019-04-26T07:55:08.698Z,9.63
2019-04-26T07:58:06.895Z,9.07
2019-04-26T08:00:44.999Z,9.00
2019-04-26T08:03:29.475Z,9.47
2019-04-26T08:06:15.843Z,8.63
2019-04-26T08:08:48.430Z,9.67
2019-04-26T08:11:22.627Z,10.17
2019-04-26T08:14:15.136Z,9.63
2019-04-26T08:16:54.101Z,9.03
2019-04-26T08:19:26.115Z,9.57
2019-04-26T08:22:11.459Z,9.83
2019-04-26T08:24:30.648Z,8.67
2019-04-26T08:27:13.416Z,9.03
2019-04-26T08:29:38.205Z,8.47
2019-04-26T08:32:11.730Z,9.70
2019-04-26T08:34:43.477Z,8.70
2019-04-26T08:37:36.610Z,8.80
2019-04-26T08:40:05.882Z,8.37
2019-04-26T08:42:37.645Z,9.17
2019-04-26T08:45:14.915Z,9.70
2019-04-26T08:47:50.854Z,8.73
2019-04-26T08:50:22.272Z,8.77
2019-04-26T08:52:52.734Z,9.33
2019-04-26T08:55:22.633Z,9.13
2019-04-26T08:57:54.266Z,9.60
2019-04-26T09:00:35.224Z,9.20
2019-04-26T09:03:11.717Z,9.27
2019-04-26T09:05:49.985Z,9.67
2019-04-26T09:08:20.419Z,9.17
2019-04-26T09:10:52.568Z,9.30
2019-04-26T09:13:24.163Z,8.87
2019-04-26T09:16:04.857Z,9.13
2019-04-26T09:18:43.004Z,9.87
2019-04-26T09:21:04.281Z,9.27
2019-04-26T09:23:40.181Z,7.93
2019-04-26T09:26:13.611Z,8.40
2019-04-26T09:28:43.982Z,9.17
2019-04-26T09:31:30.212Z,7.53
2019-04-26T09:34:12.240Z,7.67
2019-04-26T09:36:40.938Z,7.63
2019-04-26T09:39:11.299Z,7.60
2019-04-26T09:41:40.360Z,8.13
2019-04-26T09:44:10.630Z,6.93
2019-04-26T09:46:54.272Z,7.93
2019-04-26T09:49:30.645Z,6.83
2019-04-26T09:52:00.183Z,6.93
2019-04-26T09:54:28.815Z,6.77
2019-04-26T09:56:57.435Z,7.20
2019-04-26T09:59:26.259Z,7.17
2019-04-26T10:01:55.405Z,7.57
2019-04-26T10:04:25.433Z,6.77
2019-04-26T10:06:54.100Z,6.47
2019-04-26T10:09:24.191Z,5.87
2019-04-26T10:11:58.277Z,6.93
2019-04-26T10:14:28.577Z,6.10
2019-04-26T10:16:58.994Z,7.27
2019-04-26T10:19:45.489Z,7.37
2019-04-26T10:22:14.179Z,5.83
2019-04-26T10:24:42.875Z,5.33
2019-04-26T10:27:11.607Z,5.77
2019-04-26T10:29:40.304Z,6.20
2019-04-26T10:32:09.304Z,5.30
2019-04-26T10:34:38.035Z,5.83
2019-04-26T10:37:07.995Z,5.93
2019-04-26T10:39:37.103Z,5.47
2019-04-26T10:42:05.907Z,5.13
2019-04-26T10:44:35.774Z,5.77
2019-04-26T10:47:06.041Z,5.90
2019-04-26T10:49:46.400Z,6.27
2019-04-26T10:52:17.959Z,5.63
2019-04-26T10:55:04.454Z,5.70
2019-04-26T10:57:34.720Z,5.90
2019-04-26T11:00:04.983Z,6.00
2019-04-26T11:02:33.715Z,4.83
2019-04-26T11:05:02.406Z,5.10
2019-04-26T11:07:31.034Z,5.60
2019-04-26T11:10:02.818Z,6.27
2019-04-26T11:12:30.948Z,5.97
2019-04-26T11:14:59.684Z,5.50
2019-04-26T11:17:28.420Z,5.90
2019-04-26T11:19:57.132Z,5.83
2019-04-26T11:22:29.309Z,6.83
2019-04-26T11:24:56.406Z,5.47
2019-04-26T11:27:25.040Z,4.70
2019-04-26T11:29:54.284Z,4.40
2019-04-26T11:32:23.047Z,5.00
2019-04-26T11:34:54.562Z,5.33
2019-04-26T11:37:22.165Z,5.07
2019-04-26T11:39:50.924Z,5.30
2019-04-26T11:42:19.690Z,5.20
2019-04-26T11:44:48.394Z,4.70
2019-04-26T11:47:17.130Z,4.77
2019-04-26T11:49:45.825Z,4.63
2019-04-26T11:52:14.527Z,5.47
2019-04-26T11:54:43.271Z,4.33
2019-04-26T11:57:13.519Z,5.30
2019-04-26T11:59:42.355Z,4.73
2019-04-26T12:02:12.339Z,5.43
2019-04-26T12:04:43.073Z,5.93
2019-04-26T12:07:29.596Z,4.90
2019-04-26T12:09:59.856Z,5.60
2019-04-26T12:12:28.553Z,4.93
2019-04-26T12:14:58.123Z,5.23
2019-04-26T12:17:27.179Z,5.20
2019-04-26T12:19:55.902Z,6.57
2019-04-26T12:22:24.634Z,5.20
2019-04-26T12:24:53.336Z,5.67
2019-04-26T12:27:22.240Z,4.97
2019-04-26T12:29:51.007Z,5.63
2019-04-26T12:32:19.706Z,5.27
2019-04-26T12:34:48.406Z,5.50
2019-04-26T12:37:19.861Z,5.43
2019-04-26T12:39:47.552Z,5.43
2019-04-26T12:42:16.756Z,4.93
2019-04-26T12:44:49.769Z,5.57
2019-04-26T12:47:25.739Z,5.30
2019-04-26T12:49:58.549Z,5.60
2019-04-26T12:52:24.817Z,4.63
2019-04-26T12:54:53.515Z,5.37
2019-04-26T12:57:23.183Z,5.00
2019-04-26T12:59:51.881Z,4.40
2019-04-26T13:02:21.865Z,4.70
2019-04-26T13:04:50.616Z,5.23
2019-04-26T13:07:23.959Z,5.50
2019-04-26T13:10:09.142Z,5.07
2019-04-26T13:12:39.405Z,5.50
2019-04-26T13:16:02.925Z,5.63
2019-04-26T13:18:32.121Z,5.87
2019-04-26T13:21:02.973Z,5.27
2019-04-26T13:23:31.420Z,6.10
2019-04-26T13:26:01.561Z,4.83
2019-04-26T13:28:30.314Z,4.63
2019-04-26T13:31:02.031Z,4.87
2019-04-26T13:33:29.408Z,4.23
2019-04-26T13:36:05.412Z,4.80
2019-04-26T13:38:28.489Z,5.23
2019-04-26T13:40:59.646Z,5.67
2019-04-26T13:43:28.777Z,5.90
2019-04-26T13:46:15.376Z,5.10
2019-04-26T13:48:51.589Z,5.50
2019-04-26T13:51:33.965Z,6.10
2019-04-26T13:54:02.666Z,5.37
2019-04-26T13:56:32.058Z,4.90
2019-04-26T13:59:01.746Z,4.27
2019-04-26T14:01:30.438Z,5.53
2019-04-26T14:04:02.426Z,5.10
2019-04-26T14:06:29.644Z,7.13
2019-04-26T14:09:02.724Z,5.20
2019-04-26T14:11:29.581Z,4.83
2019-04-26T14:14:00.150Z,5.50
2019-04-26T14:16:29.559Z,4.77
2019-04-26T14:18:58.258Z,5.57
2019-04-26T14:21:29.140Z,5.07
2019-04-26T14:24:14.079Z,4.93
2019-04-26T14:26:44.372Z,5.23
2019-04-26T14:29:12.997Z,5.10
2019-04-26T14:31:41.699Z,4.40
2019-04-26T14:34:12.037Z,4.67
2019-04-26T14:36:43.606Z,4.90
2019-04-26T14:39:14.898Z,4.53
2019-04-26T14:41:41.892Z,5.83
2019-04-26T14:44:15.609Z,5.00
2019-04-26T14:46:48.561Z,4.37
2019-04-26T14:49:11.453Z,4.13
2019-04-26T14:51:40.690Z,5.40
2019-04-26T14:54:11.540Z,4.67
2019-04-26T14:56:51.765Z,4.70
2019-04-26T14:59:11.889Z,5.23
2019-04-26T15:01:45.427Z,6.27
2019-04-26T15:04:33.066Z,4.60
2019-04-26T15:07:04.005Z,5.50
2019-04-26T15:09:34.700Z,5.33
2019-04-26T15:12:03.526Z,4.73
2019-04-26T15:14:33.255Z,5.50
2019-04-26T15:17:02.897Z,5.53
2019-04-26T15:19:34.896Z,5.53
2019-04-26T15:22:04.106Z,4.93
2019-04-26T15:24:35.164Z,5.17
2019-04-26T15:27:03.365Z,5.70
2019-04-26T15:29:32.602Z,5.40
2019-04-26T15:32:04.819Z,4.87
2019-04-26T15:34:31.650Z,5.27
2019-04-26T15:37:00.379Z,4.70
2019-04-26T15:39:36.526Z,5.20
2019-04-26T15:42:18.955Z,5.40
2019-04-26T15:45:04.323Z,5.20
2019-04-26T15:47:34.644Z,5.70
2019-04-26T15:50:10.043Z,5.13
2019-04-26T15:52:38.562Z,6.23
2019-04-26T15:55:07.399Z,4.40
2019-04-26T15:57:36.107Z,5.63
2019-04-26T16:00:07.201Z,5.57
2019-04-26T16:02:36.093Z,5.63
2019-04-26T16:05:06.293Z,6.23
2019-04-26T16:07:35.003Z,5.47
2019-04-26T16:10:04.532Z,6.03
2019-04-26T16:12:33.238Z,6.53
2019-04-26T16:15:02.405Z,5.60
2019-04-26T16:17:31.251Z,5.83
2019-04-26T16:20:01.833Z,5.67
2019-04-26T16:22:32.750Z,5.40
2019-04-26T16:25:04.063Z,5.87
2019-04-26T16:27:34.174Z,6.30
2019-04-26T16:30:06.410Z,4.93
2019-04-26T16:32:39.659Z,5.40
2019-04-26T16:35:08.362Z,5.63
2019-04-26T16:37:37.096Z,5.30
2019-04-26T16:40:07.912Z,5.57
2019-04-26T16:42:37.808Z,6.10
2019-04-26T16:45:08.434Z,6.07
2019-04-26T16:47:44.990Z,5.43
2019-04-26T16:50:08.434Z,5.60
2019-04-26T16:52:42.276Z,5.30
2019-04-26T16:55:18.302Z,5.77
2019-04-26T16:57:44.006Z,12.23
2019-04-26T17:00:08.765Z,8.83
2019-04-26T17:02:37.499Z,6.73
2019-04-26T17:05:19.204Z,6.83
2019-04-26T17:07:39.414Z,6.37
2019-04-26T17:10:08.197Z,7.47
2019-04-26T17:12:36.965Z,5.83
2019-04-26T17:15:07.804Z,6.17
2019-04-26T17:17:36.493Z,6.13
2019-04-26T17:20:10.860Z,6.20
2019-04-26T17:22:58.586Z,6.03
2019-04-26T17:25:26.872Z,5.23
2019-04-26T17:27:54.533Z,6.00
2019-04-26T17:30:24.796Z,6.00
2019-04-26T17:32:55.194Z,5.73
2019-04-26T17:35:25.399Z,6.80
2019-04-26T17:37:57.390Z,5.30
2019-04-26T17:40:25.437Z,6.10
2019-04-26T17:42:55.137Z,5.17
2019-04-26T17:45:23.762Z,6.80
2019-04-26T17:47:52.982Z,6.20
2019-04-26T17:50:21.821Z,6.00
2019-04-26T17:52:51.566Z,4.93
2019-04-26T17:55:20.398Z,5.40
2019-04-26T17:57:50.674Z,5.90
2019-04-26T18:00:27.469Z,6.40
2019-04-26T18:02:51.720Z,6.40
2019-04-26T18:05:23.188Z,6.27
2019-04-26T18:07:58.375Z,6.07
2019-04-26T18:10:21.715Z,6.27
2019-04-26T18:12:50.852Z,6.83
2019-04-26T18:15:19.705Z,5.87
2019-04-26T18:17:53.171Z,7.10
2019-04-26T18:20:33.538Z,6.10
2019-04-26T18:23:10.084Z,6.23
2019-04-26T18:25:37.235Z,6.67
2019-04-26T18:28:08.768Z,6.37
2019-04-26T18:30:36.356Z,6.20
2019-04-26T18:33:05.235Z,6.43
2019-04-26T18:35:33.941Z,5.97
2019-04-26T18:38:03.735Z,6.43
2019-04-26T18:40:38.989Z,6.63
2019-04-26T18:43:03.394Z,7.20
2019-04-26T18:45:32.188Z,7.07
2019-04-26T18:48:01.941Z,7.03
2019-04-26T18:50:32.833Z,5.83
2019-04-26T18:53:03.531Z,6.40
2019-04-26T18:55:34.484Z,6.17
2019-04-26T18:58:06.145Z,7.50
2019-04-26T19:00:36.507Z,6.87
2019-04-26T19:03:05.977Z,6.57
2019-04-26T19:05:34.767Z,8.30
2019-04-26T19:08:05.137Z,7.97
2019-04-26T19:10:34.450Z,8.63
2019-04-26T19:13:07.800Z,9.53
2019-04-26T19:15:44.026Z,6.17
2019-04-26T19:18:32.124Z,7.07
2019-04-26T19:21:11.562Z,6.07
2019-04-26T19:23:41.550Z,7.03
2019-04-26T19:26:13.748Z,7.03
2019-04-26T19:28:42.912Z,6.93
2019-04-26T19:31:12.779Z,6.07
2019-04-26T19:33:42.821Z,6.37
2019-04-26T19:36:13.580Z,5.13
2019-04-26T19:38:45.182Z,6.60
2019-04-26T19:41:12.771Z,5.80
2019-04-26T19:43:43.653Z,5.07
2019-04-26T19:46:17.105Z,6.43
2019-04-26T19:49:03.357Z,6.00
2019-04-26T19:51:36.531Z,5.60
2019-04-26T19:54:06.832Z,6.80
2019-04-26T19:56:37.102Z,6.13
2019-04-26T19:59:05.802Z,5.30
2019-04-26T20:01:34.635Z,5.33
2019-04-26T20:04:03.270Z,6.67
2019-04-26T20:06:32.202Z,5.33
2019-04-26T20:09:02.437Z,5.03
2019-04-26T20:11:31.691Z,6.47
2019-04-26T20:14:01.125Z,4.97
2019-04-26T20:16:32.457Z,5.53
2019-04-26T20:19:01.385Z,5.53
2019-04-26T20:21:32.614Z,5.47
2019-04-26T20:24:01.308Z,5.90
2019-04-26T20:26:31.502Z,6.73
2019-04-26T20:29:00.278Z,7.00
2019-04-26T20:31:30.751Z,5.93
2019-04-26T20:34:01.535Z,5.97
2019-04-26T20:36:37.181Z,5.50
2019-04-26T20:39:01.777Z,6.30
2019-04-26T20:41:32.209Z,5.93
2019-04-26T20:44:07.346Z,6.80
2019-04-26T20:46:34.351Z,6.27
2019-04-26T20:49:07.843Z,5.40
2019-04-26T20:51:32.391Z,6.33
2019-04-26T20:54:02.033Z,6.47
2019-04-26T20:56:31.775Z,5.50
2019-04-26T20:59:01.545Z,6.57
2019-04-26T21:01:32.012Z,6.50
2019-04-26T21:04:02.030Z,5.67
2019-04-26T21:06:33.880Z,7.33
2019-04-26T21:09:03.287Z,6.70
2019-04-26T21:11:37.237Z,6.80
2019-04-26T21:14:07.495Z,6.10
2019-04-26T21:16:32.581Z,5.73
2019-04-26T21:19:01.843Z,6.53
2019-04-26T21:21:32.105Z,6.13
2019-04-26T21:24:03.651Z,6.13
2019-04-26T21:26:51.418Z,5.43
2019-04-26T21:29:31.677Z,6.03
2019-04-26T21:32:21.935Z,6.23
2019-04-26T21:34:53.839Z,5.83
2019-04-26T21:37:30.182Z,6.33
2019-04-26T21:40:16.158Z,5.97
2019-04-26T21:42:45.081Z,5.67
2019-04-26T21:45:13.449Z,6.63
2019-04-26T21:47:43.480Z,7.57
2019-04-26T21:50:13.559Z,6.73
2019-04-26T21:52:43.337Z,6.67
2019-04-26T21:55:12.867Z,6.43
2019-04-26T21:57:41.565Z,6.67
2019-04-26T22:00:28.421Z,6.67
2019-04-26T22:02:57.234Z,7.00
2019-04-26T22:05:25.932Z,6.40
2019-04-26T22:07:54.672Z,5.97
2019-04-26T22:10:33.851Z,5.43
2019-04-26T22:13:05.662Z,6.13
2019-04-26T22:15:43.806Z,6.60
2019-04-26T22:18:30.673Z,6.73
2019-04-26T22:21:03.659Z,6.73
2019-04-26T22:23:53.184Z,6.63
2019-04-26T22:26:23.678Z,5.97
2019-04-26T22:28:53.385Z,6.10
2019-04-26T22:31:23.716Z,6.20
2019-04-26T22:33:52.812Z,6.13
2019-04-26T22:36:23.336Z,7.30
2019-04-26T22:38:55.631Z,6.80
2019-04-26T22:41:24.378Z,6.67
2019-04-26T22:43:55.259Z,6.57
2019-04-26T22:46:44.409Z,6.93
2019-04-26T22:49:05.778Z,6.53
2019-04-26T22:51:37.077Z,6.70
2019-04-26T22:54:06.219Z,6.97
2019-04-26T22:56:37.222Z,6.43
2019-04-26T22:59:07.626Z,5.80
2019-04-26T23:01:39.301Z,6.50
2019-04-26T23:04:05.737Z,5.83
2019-04-26T23:06:34.433Z,6.87
2019-04-26T23:09:03.157Z,5.93
2019-04-26T23:11:33.314Z,7.13
2019-04-26T23:14:19.770Z,7.23
2019-04-26T23:17:05.900Z,6.57
2019-04-26T23:19:28.295Z,6.20
2019-04-26T23:21:58.575Z,7.17
2019-04-26T23:24:27.254Z,6.23
2019-04-26T23:26:56.010Z,6.80
2019-04-26T23:29:24.701Z,6.40
2019-04-26T23:31:55.363Z,6.70
2019-04-26T23:34:25.232Z,6.43
2019-04-26T23:36:54.157Z,6.97
2019-04-26T23:39:24.558Z,6.47
2019-04-26T23:41:53.956Z,6.60
2019-04-26T23:44:23.260Z,5.70
2019-04-26T23:46:54.872Z,5.83
2019-04-26T23:49:23.317Z,6.73
2019-04-26T23:51:53.333Z,6.60
2019-04-26T23:54:23.720Z,6.67
2019-04-26T23:56:55.748Z,6.07
2019-04-26T23:59:24.672Z,6.37
